createdAt,value
2018-07-23T00:01:30.462Z,63.20
2018-07-23T00:03:59.227Z,62.59
2018-07-23T00:06:27.965Z,63.55
2018-07-23T00:08:56.808Z,63.70
2018-07-23T00:11:25.578Z,63.40
2018-07-23T00:13:54.313Z,62.87
2018-07-23T00:16:23.028Z,62.59
2018-07-23T00:18:52.342Z,62.66
2018-07-23T00:21:21.087Z,63.19
2018-07-23T00:23:49.830Z,63.00
2018-07-23T00:26:18.601Z,62.84
2018-07-23T00:28:47.345Z,61.89
2018-07-23T00:31:16.087Z,62.20
2018-07-23T00:33:44.874Z,61.72
2018-07-23T00:36:13.625Z,61.73
2018-07-23T00:38:42.376Z,62.61
2018-07-23T00:41:11.274Z,62.56
2018-07-23T00:43:40.063Z,62.78
2018-07-23T00:46:08.869Z,62.24
2018-07-23T00:48:37.625Z,61.36
2018-07-23T00:51:06.467Z,62.16
2018-07-23T00:53:35.250Z,61.33
2018-07-23T00:56:04.071Z,62.46
2018-07-23T00:58:32.882Z,62.36
2018-07-23T01:01:01.648Z,61.61
2018-07-23T01:03:30.426Z,62.67
2018-07-23T01:05:59.190Z,61.77
2018-07-23T01:08:27.953Z,62.77
2018-07-23T01:10:56.766Z,63.05
2018-07-23T01:13:25.509Z,63.31
2018-07-23T01:15:54.273Z,62.40
2018-07-23T01:18:23.053Z,62.56
2018-07-23T01:20:51.841Z,63.36
2018-07-23T01:23:20.597Z,62.68
2018-07-23T01:25:49.349Z,62.78
2018-07-23T01:28:18.451Z,63.49
2018-07-23T01:30:47.228Z,62.78
2018-07-23T01:33:23.247Z,63.13
2018-07-23T01:35:52.046Z,64.56
2018-07-23T01:38:20.814Z,65.24
2018-07-23T01:40:49.570Z,64.64
2018-07-23T01:43:18.301Z,64.86
2018-07-23T01:45:47.249Z,64.84
2018-07-23T01:48:16.052Z,64.99
2018-07-23T01:50:44.851Z,65.72
2018-07-23T01:53:13.619Z,66.23
2018-07-23T01:55:42.410Z,65.62
2018-07-23T01:58:11.158Z,66.21
2018-07-23T02:00:39.993Z,65.66
2018-07-23T02:03:08.762Z,64.47
2018-07-23T02:05:37.563Z,65.22
2018-07-23T02:08:06.353Z,64.79
2018-07-23T02:10:35.178Z,64.91
2018-07-23T02:13:04.043Z,64.26
2018-07-23T02:15:32.827Z,64.71
2018-07-23T02:18:01.608Z,65.06
2018-07-23T02:20:30.382Z,66.71
2018-07-23T02:22:59.153Z,66.99
2018-07-23T02:25:27.989Z,68.05
2018-07-23T02:27:56.767Z,68.46
2018-07-23T02:30:25.527Z,68.50
2018-07-23T02:32:54.330Z,68.47
2018-07-23T02:35:23.105Z,68.76
2018-07-23T02:37:51.933Z,68.38
2018-07-23T02:40:20.754Z,69.81
2018-07-23T02:42:49.598Z,69.42
2018-07-23T02:45:18.368Z,70.14
2018-07-23T02:47:47.186Z,70.00
2018-07-23T02:50:15.989Z,70.01
2018-07-23T02:52:44.773Z,70.05
2018-07-23T02:55:13.574Z,70.47
2018-07-23T02:57:42.389Z,70.87
2018-07-23T03:00:11.486Z,70.24
2018-07-23T03:02:40.307Z,68.90
2018-07-23T03:05:09.529Z,70.10
2018-07-23T03:07:38.355Z,69.54
2018-07-23T03:10:07.505Z,69.88
2018-07-23T03:12:36.328Z,68.78
2018-07-23T03:15:06.727Z,68.68
2018-07-23T03:17:35.495Z,67.24
2018-07-23T03:20:04.618Z,65.81
2018-07-23T03:22:33.381Z,66.24
2018-07-23T03:25:02.139Z,65.96
2018-07-23T03:27:31.011Z,65.51
2018-07-23T03:29:59.781Z,66.32
2018-07-23T03:32:28.550Z,65.55
2018-07-23T03:34:57.358Z,66.37
2018-07-23T03:37:26.266Z,66.11
2018-07-23T03:39:55.082Z,66.65
2018-07-23T03:42:24.026Z,69.23
2018-07-23T03:44:52.799Z,69.51
2018-07-23T03:47:21.645Z,68.56
2018-07-23T03:49:50.681Z,68.39
2018-07-23T03:52:19.498Z,69.25
2018-07-23T03:54:48.266Z,68.89
2018-07-23T03:57:17.162Z,68.65
2018-07-23T03:59:45.940Z,68.52
2018-07-23T04:02:14.964Z,67.83
2018-07-23T04:04:43.709Z,68.72
2018-07-23T04:07:12.499Z,67.48
2018-07-23T04:09:41.629Z,67.86
2018-07-23T04:12:10.418Z,66.49
2018-07-23T04:14:39.161Z,66.88
2018-07-23T04:17:08.292Z,66.74
2018-07-23T04:19:37.105Z,65.14
2018-07-23T04:22:06.026Z,64.69
2018-07-23T04:24:34.825Z,65.10
2018-07-23T04:27:03.689Z,65.33
2018-07-23T04:29:32.445Z,65.03
2018-07-23T04:32:01.423Z,64.47
2018-07-23T04:34:30.180Z,65.64
2018-07-23T04:36:58.944Z,64.83
2018-07-23T04:39:27.713Z,65.96
2018-07-23T04:41:56.549Z,65.77
2018-07-23T04:44:25.702Z,65.87
2018-07-23T04:46:54.474Z,65.86
2018-07-23T04:49:23.308Z,65.00
2018-07-23T04:51:52.313Z,64.74
2018-07-23T04:54:21.126Z,64.13
2018-07-23T04:56:49.920Z,63.37
2018-07-23T04:59:18.862Z,62.02
2018-07-23T05:01:47.668Z,57.05
2018-07-23T05:04:16.391Z,55.77
2018-07-23T05:06:45.206Z,51.46
2018-07-23T05:09:13.995Z,49.52
2018-07-23T05:11:42.792Z,47.31
2018-07-23T05:14:12.099Z,47.54
2018-07-23T05:16:41.076Z,45.09
2018-07-23T05:19:09.870Z,44.45
2018-07-23T05:21:38.668Z,44.23
2018-07-23T05:24:07.518Z,44.50
2018-07-23T05:26:36.493Z,45.87
2018-07-23T05:29:05.281Z,44.81
2018-07-23T05:31:34.073Z,45.50
2018-07-23T05:34:02.850Z,46.82
2018-07-23T05:36:31.653Z,46.20
2018-07-23T05:39:00.395Z,45.04
2018-07-23T05:41:29.170Z,44.95
2018-07-23T05:43:57.965Z,45.08
2018-07-23T05:46:26.734Z,44.96
2018-07-23T05:48:55.537Z,46.37
2018-07-23T05:51:24.250Z,45.11
2018-07-23T05:53:52.961Z,45.68
2018-07-23T05:56:21.704Z,45.56
2018-07-23T05:58:50.474Z,47.78
2018-07-23T06:01:19.490Z,48.35
2018-07-23T06:03:48.278Z,48.96
2018-07-23T06:06:17.099Z,50.67
2018-07-23T06:08:45.854Z,50.66
2018-07-23T06:11:14.566Z,50.85
2018-07-23T06:13:43.726Z,50.89
2018-07-23T06:16:12.500Z,50.82
2018-07-23T06:18:41.317Z,51.75
2018-07-23T06:21:10.054Z,51.92
2018-07-23T06:23:38.784Z,52.78
2018-07-23T06:26:07.590Z,52.93
2018-07-23T06:28:36.393Z,53.80
2018-07-23T06:31:05.154Z,52.28
2018-07-23T06:33:34.002Z,53.88
2018-07-23T06:36:03.046Z,53.20
2018-07-23T06:38:31.775Z,54.06
2018-07-23T06:41:00.542Z,54.26
2018-07-23T06:43:29.314Z,53.90
2018-07-23T06:45:58.100Z,52.94
2018-07-23T06:48:26.863Z,54.15
2018-07-23T06:50:55.626Z,54.02
2018-07-23T06:53:24.357Z,53.48
2018-07-23T06:55:53.142Z,54.49
2018-07-23T06:58:21.871Z,53.89
2018-07-23T07:00:50.734Z,54.68
2018-07-23T07:03:19.494Z,54.53
2018-07-23T07:05:48.414Z,54.29
2018-07-23T07:08:17.119Z,54.73
2018-07-23T07:10:45.850Z,54.15
2018-07-23T07:13:14.628Z,52.13
2018-07-23T07:15:43.361Z,51.82
2018-07-23T07:18:12.398Z,52.76
2018-07-23T07:20:41.250Z,51.78
2018-07-23T07:23:09.979Z,51.38
2018-07-23T07:25:38.724Z,50.81
2018-07-23T07:28:07.490Z,50.26
2018-07-23T07:30:36.298Z,50.88
2018-07-23T07:33:05.360Z,51.63
2018-07-23T07:35:34.130Z,50.58
2018-07-23T07:38:02.961Z,50.37
2018-07-23T07:40:31.846Z,50.75
2018-07-23T07:43:00.654Z,50.18
2018-07-23T07:45:29.415Z,50.53
2018-07-23T07:47:58.231Z,50.14
2018-07-23T07:50:27.097Z,49.91
2018-07-23T07:52:55.834Z,49.80
2018-07-23T07:55:24.595Z,50.00
2018-07-23T07:57:53.394Z,49.96
2018-07-23T08:00:22.161Z,50.58
2018-07-23T08:02:50.926Z,49.89
2018-07-23T08:05:19.774Z,50.53
2018-07-23T08:07:48.606Z,49.25
2018-07-23T08:10:17.452Z,49.22
2018-07-23T08:12:46.231Z,50.04
2018-07-23T08:15:15.040Z,48.45
2018-07-23T08:17:43.839Z,48.59
2018-07-23T08:20:12.891Z,49.93
2018-07-23T08:22:41.684Z,47.87
2018-07-23T08:25:10.557Z,48.79
2018-07-23T08:27:39.491Z,48.14
2018-07-23T08:30:08.513Z,48.24
2018-07-23T08:32:37.376Z,48.11
2018-07-23T08:35:06.342Z,47.44
2018-07-23T08:37:35.047Z,47.63
2018-07-23T08:40:03.877Z,48.19
2018-07-23T08:42:32.634Z,48.30
2018-07-23T08:45:01.455Z,47.39
2018-07-23T08:47:30.339Z,47.54
2018-07-23T08:49:59.234Z,48.08
2018-07-23T08:52:28.061Z,47.03
2018-07-23T08:54:56.847Z,48.04
2018-07-23T08:57:26.007Z,46.72
2018-07-23T08:59:54.924Z,46.41
2018-07-23T09:02:23.679Z,46.85
2018-07-23T09:04:52.534Z,48.04
2018-07-23T09:07:21.290Z,46.39
2018-07-23T09:09:50.050Z,47.25
2018-07-23T09:12:18.814Z,45.71
2018-07-23T09:14:47.630Z,45.46
2018-07-23T09:17:16.391Z,45.80
2018-07-23T09:19:45.336Z,45.63
2018-07-23T09:22:14.155Z,45.14
2018-07-23T09:24:43.459Z,46.02
2018-07-23T09:27:12.283Z,45.82
2018-07-23T09:29:41.009Z,45.69
2018-07-23T09:32:09.762Z,45.07
2018-07-23T09:34:38.525Z,44.63
2018-07-23T09:37:07.297Z,44.60
2018-07-23T09:39:36.065Z,45.14
2018-07-23T09:42:04.833Z,43.22
2018-07-23T09:44:33.562Z,42.96
2018-07-23T09:47:02.422Z,42.14
2018-07-23T09:49:31.181Z,43.17
2018-07-23T09:52:00.065Z,42.61
2018-07-23T09:54:29.019Z,41.51
2018-07-23T09:56:57.818Z,42.88
2018-07-23T09:59:26.588Z,43.59
2018-07-23T10:01:55.308Z,43.17
2018-07-23T10:04:24.106Z,42.63
2018-07-23T10:06:52.875Z,42.79
2018-07-23T10:09:21.689Z,42.93
2018-07-23T10:11:50.408Z,42.75
2018-07-23T10:14:19.182Z,43.19
2018-07-23T10:16:48.026Z,46.49
2018-07-23T10:19:16.833Z,47.61
2018-07-23T10:21:45.663Z,49.04
2018-07-23T10:24:14.423Z,52.99
2018-07-23T10:26:43.144Z,56.13
2018-07-23T10:29:11.921Z,58.05
2018-07-23T10:31:40.722Z,60.81
2018-07-23T10:34:09.478Z,60.85
2018-07-23T10:36:38.347Z,60.33
2018-07-23T10:39:09.071Z,62.07
2018-07-23T10:41:37.850Z,63.09
2018-07-23T10:44:07.145Z,65.01
2018-07-23T10:46:35.919Z,68.84
2018-07-23T10:49:04.709Z,68.67
2018-07-23T10:51:33.483Z,69.66
2018-07-23T10:54:02.588Z,68.13
2018-07-23T10:56:31.379Z,68.41
2018-07-23T10:59:00.115Z,68.96
2018-07-23T11:01:28.834Z,66.57
2018-07-23T11:03:57.927Z,68.05
2018-07-23T11:06:26.681Z,68.10
2018-07-23T11:08:55.443Z,69.42
2018-07-23T11:11:24.195Z,69.40
2018-07-23T11:13:52.950Z,69.36
2018-07-23T11:16:21.742Z,69.35
2018-07-23T11:18:50.478Z,70.04
2018-07-23T11:21:19.265Z,69.51
2018-07-23T11:23:48.069Z,68.99
2018-07-23T11:26:17.214Z,68.07
2018-07-23T11:28:46.111Z,68.37
2018-07-23T11:31:14.852Z,67.96
2018-07-23T11:33:44.363Z,68.17
2018-07-23T11:36:13.082Z,67.26
2018-07-23T11:38:41.823Z,65.47
2018-07-23T11:41:10.656Z,64.29
2018-07-23T11:43:40.059Z,62.79
2018-07-23T11:46:08.828Z,62.56
2018-07-23T11:48:37.540Z,61.57
2018-07-23T11:51:06.398Z,61.84
2018-07-23T11:53:35.212Z,61.47
2018-07-23T11:56:04.168Z,60.17
2018-07-23T11:58:33.248Z,58.79
2018-07-23T12:01:02.081Z,58.63
2018-07-23T12:03:30.882Z,56.22
2018-07-23T12:05:59.765Z,56.08
2018-07-23T12:08:28.513Z,55.33
2018-07-23T12:10:57.342Z,56.15
2018-07-23T12:13:26.710Z,55.54
2018-07-23T12:15:55.532Z,55.69
2018-07-23T12:18:24.735Z,55.50
2018-07-23T12:20:53.466Z,56.06
2018-07-23T12:23:22.310Z,57.74
2018-07-23T12:25:51.097Z,55.21
2018-07-23T12:28:19.862Z,54.75
2018-07-23T12:30:48.641Z,54.58
2018-07-23T12:33:17.436Z,54.13
2018-07-23T12:35:46.198Z,52.14
2018-07-23T12:38:15.334Z,51.08
2018-07-23T12:40:44.081Z,50.31
2018-07-23T12:43:12.890Z,50.58
2018-07-23T12:45:41.687Z,50.46
2018-07-23T12:48:10.438Z,48.92
2018-07-23T12:50:39.593Z,49.94
2018-07-23T12:53:08.366Z,48.60
2018-07-23T12:55:37.181Z,46.54
2018-07-23T12:58:05.970Z,46.04
2018-07-23T13:00:34.763Z,46.18
2018-07-23T13:03:03.528Z,45.70
2018-07-23T13:05:32.557Z,43.62
2018-07-23T13:08:03.191Z,46.82
2018-07-23T13:10:32.090Z,44.65
2018-07-23T13:13:00.938Z,44.44
2018-07-23T13:15:29.682Z,44.60
2018-07-23T13:17:58.431Z,45.78
2018-07-23T13:20:27.268Z,46.32
2018-07-23T13:22:56.058Z,51.49
2018-07-23T13:25:24.895Z,56.00
2018-07-23T13:27:53.723Z,58.26
2018-07-23T13:30:22.506Z,60.77
2018-07-23T13:32:51.427Z,63.40
2018-07-23T13:35:22.090Z,64.61
2018-07-23T13:37:50.894Z,63.56
2018-07-23T13:40:19.676Z,62.31
2018-07-23T13:42:48.443Z,61.28
2018-07-23T13:45:17.279Z,62.17
2018-07-23T13:47:46.117Z,61.91
2018-07-23T13:50:14.974Z,61.58
2018-07-23T13:52:43.768Z,64.29
2018-07-23T13:55:17.859Z,63.17
2018-07-23T13:57:46.732Z,64.75
2018-07-23T14:00:15.845Z,64.12
2018-07-23T14:02:45.006Z,63.02
2018-07-23T14:05:13.815Z,62.51
2018-07-23T14:07:42.559Z,62.80
2018-07-23T14:10:11.307Z,61.07
2018-07-23T14:12:40.101Z,61.90
2018-07-23T14:15:09.011Z,61.11
2018-07-23T14:17:37.925Z,59.15
2018-07-23T14:20:07.140Z,60.68
2018-07-23T14:22:35.908Z,59.87
2018-07-23T14:25:04.934Z,60.54
2018-07-23T14:27:33.662Z,62.86
2018-07-23T14:30:02.517Z,64.08
2018-07-23T14:32:31.277Z,64.24
2018-07-23T14:35:00.081Z,64.34
2018-07-23T14:37:28.841Z,62.99
2018-07-23T14:39:57.606Z,63.28
2018-07-23T14:42:26.380Z,62.72
2018-07-23T14:44:55.131Z,63.86
2018-07-23T14:47:23.892Z,63.62
2018-07-23T14:49:52.789Z,63.95
2018-07-23T14:52:21.581Z,62.77
2018-07-23T14:54:50.412Z,63.93
2018-07-23T14:57:19.597Z,63.83
2018-07-23T14:59:48.329Z,63.84
2018-07-23T15:02:17.163Z,64.30
2018-07-23T15:04:45.905Z,63.90
2018-07-23T15:07:14.750Z,63.77
2018-07-23T15:09:43.635Z,61.55
2018-07-23T15:12:12.442Z,61.68
2018-07-23T15:14:41.231Z,62.31
2018-07-23T15:17:10.117Z,61.14
2018-07-23T15:19:38.989Z,62.40
2018-07-23T15:22:08.122Z,61.20
2018-07-23T15:24:36.920Z,60.73
2018-07-23T15:27:05.765Z,59.95
2018-07-23T15:29:34.588Z,61.00
2018-07-23T15:32:03.408Z,61.05
2018-07-23T15:34:32.158Z,61.40
2018-07-23T15:37:03.769Z,60.50
2018-07-23T15:39:32.581Z,60.59
2018-07-23T15:42:01.389Z,60.37
2018-07-23T15:44:30.493Z,61.47
2018-07-23T15:46:59.112Z,62.66
2018-07-23T15:49:27.911Z,62.81
2018-07-23T15:51:56.761Z,61.97
2018-07-23T15:54:25.640Z,60.34
2018-07-23T15:56:54.423Z,61.85
2018-07-23T15:59:23.397Z,62.16
2018-07-23T16:01:52.194Z,63.33
2018-07-23T16:04:20.994Z,64.34
2018-07-23T16:06:52.263Z,65.59
2018-07-23T16:09:21.043Z,65.41
2018-07-23T16:11:49.835Z,65.72
2018-07-23T16:14:18.579Z,66.58
2018-07-23T16:16:47.331Z,66.09
2018-07-23T16:19:16.066Z,65.96
2018-07-23T16:21:44.880Z,65.82
2018-07-23T16:24:13.662Z,64.94
2018-07-23T16:26:42.544Z,65.16
2018-07-23T16:29:11.366Z,63.59
2018-07-23T16:31:40.139Z,61.49
2018-07-23T16:34:09.049Z,63.42
2018-07-23T16:36:37.838Z,61.26
2018-07-23T16:39:09.791Z,62.04
2018-07-23T16:41:38.583Z,62.28
2018-07-23T16:44:07.902Z,65.73
2018-07-23T16:46:36.864Z,64.71
2018-07-23T16:49:05.759Z,64.83
2018-07-23T16:51:34.555Z,64.70
2018-07-23T16:54:03.375Z,64.52
2018-07-23T16:56:32.179Z,63.20
2018-07-23T16:59:00.998Z,61.57
2018-07-23T17:01:29.722Z,63.78
2018-07-23T17:03:58.584Z,68.01
2018-07-23T17:06:27.492Z,68.24
2018-07-23T17:08:56.263Z,69.45
2018-07-23T17:11:25.099Z,70.98
2018-07-23T17:13:53.921Z,72.28
2018-07-23T17:16:22.665Z,72.62
2018-07-23T17:18:51.517Z,72.22
2018-07-23T17:21:23.337Z,73.16
2018-07-23T17:23:52.156Z,75.21
2018-07-23T17:26:20.908Z,74.83
2018-07-23T17:28:49.721Z,74.21
2018-07-23T17:31:18.463Z,75.03
2018-07-23T17:33:47.324Z,74.80
2018-07-23T17:36:16.132Z,73.39
2018-07-23T17:38:45.489Z,73.40
2018-07-23T17:41:14.566Z,73.72
2018-07-23T17:43:43.367Z,73.22
2018-07-23T17:46:12.188Z,72.10
2018-07-23T17:48:40.988Z,73.82
2018-07-23T17:51:09.964Z,75.80
2018-07-23T17:53:38.803Z,78.21
2018-07-23T17:56:07.787Z,79.85
2018-07-23T17:58:36.609Z,81.30
2018-07-23T18:01:05.388Z,82.11
2018-07-23T18:03:34.275Z,82.91
2018-07-23T18:06:03.383Z,82.29
2018-07-23T18:08:32.174Z,82.22
2018-07-23T18:11:01.016Z,81.64
2018-07-23T18:13:29.822Z,82.22
2018-07-23T18:15:58.637Z,83.59
2018-07-23T18:18:28.659Z,83.83
2018-07-23T18:20:57.484Z,85.15
2018-07-23T18:23:27.092Z,84.71
2018-07-23T18:26:03.425Z,85.15
2018-07-23T18:28:32.334Z,85.05
2018-07-23T18:31:02.618Z,84.99
2018-07-23T18:33:31.517Z,85.04
2018-07-23T18:36:00.419Z,84.31
2018-07-23T18:38:29.482Z,85.33
2018-07-23T18:40:58.461Z,85.56
2018-07-23T18:43:27.297Z,85.52
2018-07-23T18:45:56.840Z,85.34
2018-07-23T18:49:36.753Z,84.84
2018-07-23T18:52:05.678Z,84.93
2018-07-23T18:54:35.009Z,83.71
2018-07-23T18:57:05.224Z,83.32
2018-07-23T18:59:34.466Z,83.29
2018-07-23T19:02:05.095Z,82.52
2018-07-23T19:04:34.773Z,82.74
2018-07-23T19:07:03.624Z,83.17
2018-07-23T19:09:32.525Z,82.85
2018-07-23T19:12:01.589Z,83.11
2018-07-23T19:14:30.454Z,82.89
2018-07-23T19:17:00.292Z,82.35
2018-07-23T19:19:29.154Z,80.56
2018-07-23T19:21:58.253Z,81.05
2018-07-23T19:24:27.096Z,80.68
2018-07-23T19:26:57.285Z,80.94
2018-07-23T19:29:26.469Z,82.21
2018-07-23T19:31:56.142Z,82.26
2018-07-23T19:34:30.923Z,82.64
2018-07-23T19:36:59.821Z,83.17
2018-07-23T19:39:28.663Z,83.20
2018-07-23T19:41:57.413Z,83.45
2018-07-23T19:44:26.384Z,83.61
2018-07-23T19:46:55.256Z,83.18
2018-07-23T19:49:24.009Z,83.07
2018-07-23T19:51:52.831Z,83.08
2018-07-23T19:54:21.612Z,83.56
2018-07-23T19:56:50.438Z,83.12
2018-07-23T19:59:19.378Z,83.29
2018-07-23T20:01:48.166Z,82.82
2018-07-23T20:04:17.737Z,82.21
2018-07-23T20:06:48.177Z,80.29
2018-07-23T20:09:17.038Z,80.17
2018-07-23T20:11:46.107Z,80.00
2018-07-23T20:14:14.884Z,80.71
2018-07-23T20:16:43.976Z,81.98
2018-07-23T20:19:12.803Z,82.85
2018-07-23T20:21:41.595Z,83.44
2018-07-23T20:24:10.381Z,82.56
2018-07-23T20:26:39.200Z,82.73
2018-07-23T20:29:08.098Z,82.77
2018-07-23T20:31:36.920Z,81.78
2018-07-23T20:34:05.724Z,82.49
2018-07-23T20:36:34.491Z,82.76
2018-07-23T20:39:03.395Z,82.78
2018-07-23T20:41:32.364Z,83.24
2018-07-23T20:44:01.142Z,84.72
2018-07-23T20:46:29.919Z,84.10
2018-07-23T20:48:58.619Z,83.71
2018-07-23T20:51:27.779Z,84.18
2018-07-23T20:53:56.689Z,84.39
2018-07-23T20:56:25.456Z,84.58
2018-07-23T20:58:54.193Z,84.50
2018-07-23T21:01:22.974Z,85.49
2018-07-23T21:03:51.826Z,84.85
2018-07-23T21:06:20.727Z,85.03
2018-07-23T21:08:49.539Z,83.73
2018-07-23T21:11:18.253Z,84.88
2018-07-23T21:13:46.968Z,84.07
2018-07-23T21:16:15.752Z,83.73
2018-07-23T21:18:44.600Z,82.40
2018-07-23T21:21:13.355Z,82.42
2018-07-23T21:23:42.067Z,82.67
2018-07-23T21:26:11.631Z,83.06
2018-07-23T21:28:40.410Z,82.51
2018-07-23T21:31:09.627Z,81.16
2018-07-23T21:33:38.834Z,80.81
2018-07-23T21:36:07.565Z,81.32
2018-07-23T21:38:36.384Z,80.68
2018-07-23T21:41:05.244Z,81.80
2018-07-23T21:43:34.042Z,82.17
2018-07-23T21:46:02.813Z,81.94
2018-07-23T21:48:31.600Z,82.00
2018-07-23T21:51:00.525Z,82.56
2018-07-23T21:53:29.300Z,83.11
2018-07-23T21:55:58.067Z,83.07
2018-07-23T21:58:26.848Z,82.98
2018-07-23T22:00:56.602Z,83.50
2018-07-23T22:03:25.419Z,82.66
2018-07-23T22:05:54.526Z,82.40
2018-07-23T22:08:23.277Z,82.70
2018-07-23T22:10:52.058Z,83.32
2018-07-23T22:13:20.884Z,83.98
2018-07-23T22:15:49.638Z,83.89
2018-07-23T22:18:19.108Z,83.56
2018-07-23T22:20:47.815Z,83.02
2018-07-23T22:23:16.509Z,82.99
2018-07-23T22:25:45.305Z,82.74
2018-07-23T22:28:14.071Z,82.49
2018-07-23T22:30:42.830Z,82.48
2018-07-23T22:33:11.601Z,81.47
2018-07-23T22:35:41.065Z,81.23
2018-07-23T22:38:09.888Z,82.01
2018-07-23T22:40:38.605Z,81.77
2018-07-23T22:43:07.345Z,81.82
2018-07-23T22:45:36.077Z,81.16
2018-07-23T22:48:05.254Z,81.64
2018-07-23T22:50:33.993Z,81.80
2018-07-23T22:53:02.666Z,81.12
2018-07-23T22:55:31.486Z,81.26
2018-07-23T22:58:00.249Z,81.85
2018-07-23T23:00:29.022Z,81.93
2018-07-23T23:02:57.761Z,82.35
2018-07-23T23:05:26.510Z,82.45
2018-07-23T23:07:55.319Z,81.29
2018-07-23T23:10:24.246Z,82.49
2018-07-23T23:12:53.203Z,82.98
2018-07-23T23:15:22.107Z,82.39
2018-07-23T23:17:51.280Z,82.16
2018-07-23T23:20:20.100Z,83.02
2018-07-23T23:22:49.021Z,82.28
2018-07-23T23:25:17.838Z,81.64
2018-07-23T23:27:46.739Z,82.34
2018-07-23T23:30:15.627Z,81.26
2018-07-23T23:32:44.586Z,80.81
2018-07-23T23:35:13.384Z,80.98
2018-07-23T23:37:42.195Z,80.26
2018-07-23T23:40:10.954Z,81.21
2018-07-23T23:42:39.907Z,80.47
2018-07-23T23:45:09.063Z,80.83
2018-07-23T23:47:38.045Z,80.69
2018-07-23T23:50:07.593Z,80.48
2018-07-23T23:52:36.361Z,80.89
2018-07-23T23:55:05.266Z,80.71
2018-07-23T23:57:34.271Z,80.29
